sensor_id;sensor_type;location;lat;lon;timestamp;temperature;humidity
46652;DHT22;32377;52.182;5.398;2023-02-28T00:01:26;2.90;99.90
46652;DHT22;32377;52.182;5.398;2023-02-28T00:03:52;2.90;99.90
46652;DHT22;32377;52.182;5.398;2023-02-28T00:06:18;2.90;99.90
46652;DHT22;32377;52.182;5.398;2023-02-28T00:08:43;3.00;99.90
46652;DHT22;32377;52.182;5.398;2023-02-28T00:11:11;3.00;99.90
46652;DHT22;32377;52.182;5.398;2023-02-28T00:13:40;3.00;99.90
46652;DHT22;32377;52.182;5.398;2023-02-28T00:16:16;3.00;99.90
46652;DHT22;32377;52.182;5.398;2023-02-28T00:18:42;3.00;99.90
46652;DHT22;32377;52.182;5.398;2023-02-28T00:21:08;3.00;99.90
46652;DHT22;32377;52.182;5.398;2023-02-28T00:23:34;3.10;99.90
46652;DHT22;32377;52.182;5.398;2023-02-28T00:26:00;3.00;99.90
46652;DHT22;32377;52.182;5.398;2023-02-28T00:28:26;3.10;99.90
46652;DHT22;32377;52.182;5.398;2023-02-28T00:30:51;3.10;99.90
46652;DHT22;32377;52.182;5.398;2023-02-28T00:33:17;3.00;99.90
46652;DHT22;32377;52.182;5.398;2023-02-28T00:35:43;3.10;99.90
46652;DHT22;32377;52.182;5.398;2023-02-28T00:38:11;3.00;99.90
46652;DHT22;32377;52.182;5.398;2023-02-28T00:40:37;3.00;99.90
46652;DHT22;32377;52.182;5.398;2023-02-28T00:43:02;3.10;99.90
46652;DHT22;32377;52.182;5.398;2023-02-28T00:45:29;3.10;99.90
46652;DHT22;32377;52.182;5.398;2023-02-28T00:47:55;3.10;99.90
46652;DHT22;32377;52.182;5.398;2023-02-28T00:50:20;3.10;99.90
46652;DHT22;32377;52.182;5.398;2023-02-28T00:52:47;3.10;99.90
46652;DHT22;32377;52.182;5.398;2023-02-28T00:55:13;3.10;99.90
46652;DHT22;32377;52.182;5.398;2023-02-28T00:57:38;3.20;99.90
46652;DHT22;32377;52.182;5.398;2023-02-28T01:00:05;3.20;99.90
46652;DHT22;32377;52.182;5.398;2023-02-28T01:02:30;3.10;99.90
46652;DHT22;32377;52.182;5.398;2023-02-28T01:04:56;3.10;99.90
46652;DHT22;32377;52.182;5.398;2023-02-28T01:07:22;3.10;99.90
46652;DHT22;32377;52.182;5.398;2023-02-28T01:09:48;3.20;99.90
46652;DHT22;32377;52.182;5.398;2023-02-28T01:12:14;3.20;99.90
46652;DHT22;32377;52.182;5.398;2023-02-28T01:14:39;3.20;99.90
46652;DHT22;32377;52.182;5.398;2023-02-28T01:17:05;3.20;99.90
46652;DHT22;32377;52.182;5.398;2023-02-28T01:19:31;3.20;99.90
46652;DHT22;32377;52.182;5.398;2023-02-28T01:21:56;3.20;99.90
46652;DHT22;32377;52.182;5.398;2023-02-28T01:24:22;3.20;99.90
46652;DHT22;32377;52.182;5.398;2023-02-28T01:26:47;3.20;99.90
46652;DHT22;32377;52.182;5.398;2023-02-28T01:29:13;3.20;99.90
46652;DHT22;32377;52.182;5.398;2023-02-28T01:31:40;3.20;99.90
46652;DHT22;32377;52.182;5.398;2023-02-28T01:34:05;3.20;99.90
46652;DHT22;32377;52.182;5.398;2023-02-28T01:36:31;3.20;99.90
46652;DHT22;32377;52.182;5.398;2023-02-28T01:38:56;3.30;99.90
46652;DHT22;32377;52.182;5.398;2023-02-28T01:41:25;3.30;99.90
46652;DHT22;32377;52.182;5.398;2023-02-28T01:43:55;3.30;99.90
46652;DHT22;32377;52.182;5.398;2023-02-28T01:46:21;3.30;99.90
46652;DHT22;32377;52.182;5.398;2023-02-28T01:49:01;3.30;99.90
46652;DHT22;32377;52.182;5.398;2023-02-28T01:51:31;3.20;99.90
46652;DHT22;32377;52.182;5.398;2023-02-28T01:54:02;3.20;99.90
46652;DHT22;32377;52.182;5.398;2023-02-28T01:56:31;3.20;99.90
46652;DHT22;32377;52.182;5.398;2023-02-28T01:58:58;3.20;99.90
46652;DHT22;32377;52.182;5.398;2023-02-28T02:01:26;3.20;99.90
46652;DHT22;32377;52.182;5.398;2023-02-28T02:03:55;3.30;99.90
46652;DHT22;32377;52.182;5.398;2023-02-28T02:06:23;3.20;99.90
46652;DHT22;32377;52.182;5.398;2023-02-28T02:08:49;3.30;99.90
46652;DHT22;32377;52.182;5.398;2023-02-28T02:11:18;3.30;99.90
46652;DHT22;32377;52.182;5.398;2023-02-28T02:14:30;3.30;99.90
46652;DHT22;32377;52.182;5.398;2023-02-28T02:25:28;3.40;99.90
46652;DHT22;32377;52.182;5.398;2023-02-28T02:31:05;3.20;99.90
46652;DHT22;32377;52.182;5.398;2023-02-28T02:34:03;3.20;99.90
46652;DHT22;32377;52.182;5.398;2023-02-28T02:36:35;3.30;99.90
46652;DHT22;32377;52.182;5.398;2023-02-28T02:39:09;3.30;99.90
46652;DHT22;32377;52.182;5.398;2023-02-28T02:44:31;3.30;99.90
46652;DHT22;32377;52.182;5.398;2023-02-28T02:47:11;3.30;99.90
46652;DHT22;32377;52.182;5.398;2023-02-28T02:49:40;3.30;99.90
46652;DHT22;32377;52.182;5.398;2023-02-28T02:52:09;3.30;99.90
46652;DHT22;32377;52.182;5.398;2023-02-28T02:54:40;3.30;99.90
46652;DHT22;32377;52.182;5.398;2023-02-28T02:57:13;3.30;99.90
46652;DHT22;32377;52.182;5.398;2023-02-28T02:59:41;3.30;99.90
46652;DHT22;32377;52.182;5.398;2023-02-28T03:02:11;3.30;99.90
46652;DHT22;32377;52.182;5.398;2023-02-28T03:04:43;3.30;99.90
46652;DHT22;32377;52.182;5.398;2023-02-28T03:07:11;3.30;99.90
46652;DHT22;32377;52.182;5.398;2023-02-28T03:09:37;3.20;99.90
46652;DHT22;32377;52.182;5.398;2023-02-28T03:12:03;3.40;99.90
46652;DHT22;32377;52.182;5.398;2023-02-28T03:14:48;3.40;99.90
46652;DHT22;32377;52.182;5.398;2023-02-28T03:17:20;3.30;99.90
46652;DHT22;32377;52.182;5.398;2023-02-28T03:31:19;3.40;99.90
46652;DHT22;32377;52.182;5.398;2023-02-28T03:33:51;3.40;99.90
46652;DHT22;32377;52.182;5.398;2023-02-28T03:36:30;3.40;99.90
46652;DHT22;32377;52.182;5.398;2023-02-28T03:39:01;3.50;99.90
46652;DHT22;32377;52.182;5.398;2023-02-28T03:41:58;3.50;99.90
46652;DHT22;32377;52.182;5.398;2023-02-28T03:47:08;3.40;99.90
46652;DHT22;32377;52.182;5.398;2023-02-28T03:49:43;3.40;99.90
46652;DHT22;32377;52.182;5.398;2023-02-28T03:52:11;3.40;99.90
46652;DHT22;32377;52.182;5.398;2023-02-28T03:54:42;3.40;99.90
46652;DHT22;32377;52.182;5.398;2023-02-28T03:57:27;3.40;99.90
46652;DHT22;32377;52.182;5.398;2023-02-28T04:00:10;3.40;99.90
46652;DHT22;32377;52.182;5.398;2023-02-28T04:02:37;3.40;99.90
46652;DHT22;32377;52.182;5.398;2023-02-28T04:05:05;3.40;99.90
46652;DHT22;32377;52.182;5.398;2023-02-28T04:07:31;3.40;99.90
46652;DHT22;32377;52.182;5.398;2023-02-28T04:09:57;3.40;99.90
46652;DHT22;32377;52.182;5.398;2023-02-28T04:12:24;3.40;99.90
46652;DHT22;32377;52.182;5.398;2023-02-28T04:14:49;3.40;99.90
46652;DHT22;32377;52.182;5.398;2023-02-28T04:17:16;3.40;99.90
46652;DHT22;32377;52.182;5.398;2023-02-28T04:19:41;3.30;99.90
46652;DHT22;32377;52.182;5.398;2023-02-28T04:22:08;3.30;99.90
46652;DHT22;32377;52.182;5.398;2023-02-28T04:24:34;3.20;99.90
46652;DHT22;32377;52.182;5.398;2023-02-28T04:27:00;3.30;99.90
46652;DHT22;32377;52.182;5.398;2023-02-28T04:29:30;3.20;99.90
46652;DHT22;32377;52.182;5.398;2023-02-28T04:31:58;3.30;99.90
46652;DHT22;32377;52.182;5.398;2023-02-28T04:34:28;3.20;99.90
46652;DHT22;32377;52.182;5.398;2023-02-28T04:36:54;3.10;99.90
46652;DHT22;32377;52.182;5.398;2023-02-28T04:39:21;3.10;99.90
46652;DHT22;32377;52.182;5.398;2023-02-28T04:41:48;3.20;99.90
46652;DHT22;32377;52.182;5.398;2023-02-28T04:44:14;3.10;99.90
46652;DHT22;32377;52.182;5.398;2023-02-28T04:46:40;3.10;99.90
46652;DHT22;32377;52.182;5.398;2023-02-28T04:49:06;3.00;99.90
46652;DHT22;32377;52.182;5.398;2023-02-28T04:51:31;3.00;99.90
46652;DHT22;32377;52.182;5.398;2023-02-28T04:53:57;3.00;99.90
46652;DHT22;32377;52.182;5.398;2023-02-28T04:59:08;2.90;99.90
46652;DHT22;32377;52.182;5.398;2023-02-28T05:01:34;2.90;99.90
46652;DHT22;32377;52.182;5.398;2023-02-28T05:04:02;2.80;99.90
46652;DHT22;32377;52.182;5.398;2023-02-28T05:06:30;2.70;99.90
46652;DHT22;32377;52.182;5.398;2023-02-28T05:08:56;2.70;99.90
46652;DHT22;32377;52.182;5.398;2023-02-28T05:11:27;2.70;99.90
46652;DHT22;32377;52.182;5.398;2023-02-28T05:13:55;2.70;99.90
46652;DHT22;32377;52.182;5.398;2023-02-28T05:16:21;2.70;99.90
46652;DHT22;32377;52.182;5.398;2023-02-28T05:18:47;2.70;99.90
46652;DHT22;32377;52.182;5.398;2023-02-28T05:21:32;2.60;99.90
46652;DHT22;32377;52.182;5.398;2023-02-28T05:23:59;2.60;99.90
46652;DHT22;32377;52.182;5.398;2023-02-28T05:26:26;2.60;99.90
46652;DHT22;32377;52.182;5.398;2023-02-28T05:28:52;2.50;99.90
46652;DHT22;32377;52.182;5.398;2023-02-28T05:31:18;2.40;99.90
46652;DHT22;32377;52.182;5.398;2023-02-28T05:33:44;2.30;99.90
46652;DHT22;32377;52.182;5.398;2023-02-28T05:36:10;2.30;99.90
46652;DHT22;32377;52.182;5.398;2023-02-28T05:38:35;2.20;99.90
46652;DHT22;32377;52.182;5.398;2023-02-28T05:41:05;2.10;99.90
46652;DHT22;32377;52.182;5.398;2023-02-28T05:43:31;2.10;99.90
46652;DHT22;32377;52.182;5.398;2023-02-28T05:45:57;2.00;99.90
46652;DHT22;32377;52.182;5.398;2023-02-28T05:48:22;1.90;99.90
46652;DHT22;32377;52.182;5.398;2023-02-28T05:50:48;1.90;99.90
46652;DHT22;32377;52.182;5.398;2023-02-28T05:53:13;1.90;99.90
46652;DHT22;32377;52.182;5.398;2023-02-28T05:55:39;1.80;99.90
46652;DHT22;32377;52.182;5.398;2023-02-28T05:58:06;1.70;99.90
46652;DHT22;32377;52.182;5.398;2023-02-28T06:00:31;1.70;99.90
46652;DHT22;32377;52.182;5.398;2023-02-28T06:02:57;1.60;99.90
46652;DHT22;32377;52.182;5.398;2023-02-28T06:05:26;1.60;99.90
46652;DHT22;32377;52.182;5.398;2023-02-28T06:07:53;1.60;99.90
46652;DHT22;32377;52.182;5.398;2023-02-28T06:10:18;1.60;99.90
46652;DHT22;32377;52.182;5.398;2023-02-28T06:12:45;1.60;99.90
46652;DHT22;32377;52.182;5.398;2023-02-28T06:15:15;1.50;99.90
46652;DHT22;32377;52.182;5.398;2023-02-28T06:17:42;1.50;99.90
46652;DHT22;32377;52.182;5.398;2023-02-28T06:20:09;1.50;99.90
46652;DHT22;32377;52.182;5.398;2023-02-28T06:22:36;1.50;99.90
46652;DHT22;32377;52.182;5.398;2023-02-28T06:25:03;1.50;99.90
46652;DHT22;32377;52.182;5.398;2023-02-28T06:27:28;1.50;99.90
46652;DHT22;32377;52.182;5.398;2023-02-28T06:29:55;1.50;99.90
46652;DHT22;32377;52.182;5.398;2023-02-28T06:32:21;1.40;99.90
46652;DHT22;32377;52.182;5.398;2023-02-28T06:34:47;1.50;99.90
46652;DHT22;32377;52.182;5.398;2023-02-28T06:37:12;1.50;99.90
46652;DHT22;32377;52.182;5.398;2023-02-28T06:39:38;1.40;99.90
46652;DHT22;32377;52.182;5.398;2023-02-28T06:42:04;1.40;99.90
46652;DHT22;32377;52.182;5.398;2023-02-28T06:44:30;1.40;99.90
46652;DHT22;32377;52.182;5.398;2023-02-28T06:47:01;1.40;99.90
46652;DHT22;32377;52.182;5.398;2023-02-28T06:49:32;1.50;99.90
46652;DHT22;32377;52.182;5.398;2023-02-28T06:51:58;1.60;99.90
46652;DHT22;32377;52.182;5.398;2023-02-28T06:54:24;1.60;99.90
46652;DHT22;32377;52.182;5.398;2023-02-28T06:56:50;1.60;99.90
46652;DHT22;32377;52.182;5.398;2023-02-28T06:59:16;1.60;99.90
46652;DHT22;32377;52.182;5.398;2023-02-28T07:01:42;1.70;99.90
46652;DHT22;32377;52.182;5.398;2023-02-28T07:04:08;1.60;99.90
46652;DHT22;32377;52.182;5.398;2023-02-28T07:06:33;1.80;99.90
46652;DHT22;32377;52.182;5.398;2023-02-28T07:08:59;1.80;99.90
46652;DHT22;32377;52.182;5.398;2023-02-28T07:11:27;1.80;99.90
46652;DHT22;32377;52.182;5.398;2023-02-28T07:13:56;1.80;99.90
46652;DHT22;32377;52.182;5.398;2023-02-28T07:16:22;1.80;99.90
46652;DHT22;32377;52.182;5.398;2023-02-28T07:18:48;1.80;99.90
46652;DHT22;32377;52.182;5.398;2023-02-28T07:21:14;1.90;99.90
46652;DHT22;32377;52.182;5.398;2023-02-28T07:23:40;1.90;99.90
46652;DHT22;32377;52.182;5.398;2023-02-28T07:26:07;2.00;99.90
46652;DHT22;32377;52.182;5.398;2023-02-28T07:28:36;2.00;99.90
46652;DHT22;32377;52.182;5.398;2023-02-28T07:31:06;2.10;99.90
46652;DHT22;32377;52.182;5.398;2023-02-28T07:33:32;2.10;99.90
46652;DHT22;32377;52.182;5.398;2023-02-28T07:36:04;2.10;99.90
46652;DHT22;32377;52.182;5.398;2023-02-28T07:38:30;2.20;99.90
46652;DHT22;32377;52.182;5.398;2023-02-28T07:40:56;2.20;99.90
46652;DHT22;32377;52.182;5.398;2023-02-28T07:43:21;2.20;99.90
46652;DHT22;32377;52.182;5.398;2023-02-28T07:45:47;2.30;99.90
46652;DHT22;32377;52.182;5.398;2023-02-28T07:48:12;2.30;99.90
46652;DHT22;32377;52.182;5.398;2023-02-28T07:50:38;2.40;99.90
46652;DHT22;32377;52.182;5.398;2023-02-28T07:53:04;2.40;99.90
46652;DHT22;32377;52.182;5.398;2023-02-28T07:55:29;2.40;99.90
46652;DHT22;32377;52.182;5.398;2023-02-28T07:57:57;2.30;99.90
46652;DHT22;32377;52.182;5.398;2023-02-28T08:00:23;2.30;99.90
46652;DHT22;32377;52.182;5.398;2023-02-28T08:02:49;2.30;99.90
46652;DHT22;32377;52.182;5.398;2023-02-28T08:05:14;2.40;99.90
46652;DHT22;32377;52.182;5.398;2023-02-28T08:07:40;2.30;99.90
46652;DHT22;32377;52.182;5.398;2023-02-28T08:10:06;2.40;99.90
46652;DHT22;32377;52.182;5.398;2023-02-28T08:12:32;2.40;99.90
46652;DHT22;32377;52.182;5.398;2023-02-28T08:14:58;2.40;99.90
46652;DHT22;32377;52.182;5.398;2023-02-28T08:17:23;2.50;99.90
46652;DHT22;32377;52.182;5.398;2023-02-28T08:19:49;2.60;99.90
46652;DHT22;32377;52.182;5.398;2023-02-28T08:22:14;2.70;99.90
46652;DHT22;32377;52.182;5.398;2023-02-28T08:24:43;2.70;99.90
46652;DHT22;32377;52.182;5.398;2023-02-28T08:27:09;2.80;99.90
46652;DHT22;32377;52.182;5.398;2023-02-28T08:29:37;2.90;99.90
46652;DHT22;32377;52.182;5.398;2023-02-28T08:32:03;2.90;99.90
46652;DHT22;32377;52.182;5.398;2023-02-28T08:34:29;2.90;99.90
46652;DHT22;32377;52.182;5.398;2023-02-28T08:36:54;2.90;99.90
46652;DHT22;32377;52.182;5.398;2023-02-28T08:39:21;2.90;99.90
46652;DHT22;32377;52.182;5.398;2023-02-28T08:41:46;2.90;99.90
46652;DHT22;32377;52.182;5.398;2023-02-28T08:44:12;3.00;99.90
46652;DHT22;32377;52.182;5.398;2023-02-28T08:46:38;3.00;99.90
46652;DHT22;32377;52.182;5.398;2023-02-28T08:49:04;3.10;99.90
46652;DHT22;32377;52.182;5.398;2023-02-28T08:51:30;3.20;99.90
46652;DHT22;32377;52.182;5.398;2023-02-28T08:53:58;3.30;99.90
46652;DHT22;32377;52.182;5.398;2023-02-28T08:56:26;3.30;99.90
46652;DHT22;32377;52.182;5.398;2023-02-28T08:58:52;3.50;99.90
46652;DHT22;32377;52.182;5.398;2023-02-28T09:01:27;3.50;99.90
46652;DHT22;32377;52.182;5.398;2023-02-28T09:03:53;3.40;99.90
46652;DHT22;32377;52.182;5.398;2023-02-28T09:06:22;3.40;99.90
46652;DHT22;32377;52.182;5.398;2023-02-28T09:08:48;3.40;99.90
46652;DHT22;32377;52.182;5.398;2023-02-28T09:11:14;3.50;99.90
46652;DHT22;32377;52.182;5.398;2023-02-28T09:13:41;3.40;99.90
46652;DHT22;32377;52.182;5.398;2023-02-28T09:16:10;3.50;99.90
46652;DHT22;32377;52.182;5.398;2023-02-28T09:18:36;3.50;99.90
46652;DHT22;32377;52.182;5.398;2023-02-28T09:21:09;3.50;99.90
46652;DHT22;32377;52.182;5.398;2023-02-28T09:23:35;3.50;99.90
46652;DHT22;32377;52.182;5.398;2023-02-28T09:26:04;3.70;99.90
46652;DHT22;32377;52.182;5.398;2023-02-28T09:28:29;3.80;99.90
46652;DHT22;32377;52.182;5.398;2023-02-28T09:30:55;4.00;99.90
46652;DHT22;32377;52.182;5.398;2023-02-28T09:33:22;4.20;99.90
46652;DHT22;32377;52.182;5.398;2023-02-28T09:35:49;4.40;99.90
46652;DHT22;32377;52.182;5.398;2023-02-28T09:38:16;4.70;99.90
46652;DHT22;32377;52.182;5.398;2023-02-28T09:40:53;5.00;99.90
46652;DHT22;32377;52.182;5.398;2023-02-28T09:43:25;5.10;99.90
46652;DHT22;32377;52.182;5.398;2023-02-28T09:45:56;5.00;99.90
46652;DHT22;32377;52.182;5.398;2023-02-28T09:48:33;5.00;99.90
46652;DHT22;32377;52.182;5.398;2023-02-28T09:51:13;5.00;99.90
46652;DHT22;32377;52.182;5.398;2023-02-28T09:53:41;4.90;99.90
46652;DHT22;32377;52.182;5.398;2023-02-28T09:56:14;4.60;99.90
46652;DHT22;32377;52.182;5.398;2023-02-28T09:58:51;4.50;99.90
46652;DHT22;32377;52.182;5.398;2023-02-28T10:05:13;4.60;99.90
46652;DHT22;32377;52.182;5.398;2023-02-28T10:10:32;4.90;99.90
46652;DHT22;32377;52.182;5.398;2023-02-28T10:13:01;5.10;99.90
46652;DHT22;32377;52.182;5.398;2023-02-28T10:15:31;5.20;99.90
46652;DHT22;32377;52.182;5.398;2023-02-28T10:18:03;5.30;99.90
46652;DHT22;32377;52.182;5.398;2023-02-28T10:20:33;5.50;99.90
46652;DHT22;32377;52.182;5.398;2023-02-28T10:25:57;5.50;99.90
46652;DHT22;32377;52.182;5.398;2023-02-28T10:28:25;5.50;99.90
46652;DHT22;32377;52.182;5.398;2023-02-28T10:30:53;5.60;99.90
46652;DHT22;32377;52.182;5.398;2023-02-28T10:33:29;5.70;99.90
46652;DHT22;32377;52.182;5.398;2023-02-28T10:35:56;5.80;99.90
46652;DHT22;32377;52.182;5.398;2023-02-28T10:38:24;6.00;99.90
46652;DHT22;32377;52.182;5.398;2023-02-28T10:40:50;5.80;99.90
46652;DHT22;32377;52.182;5.398;2023-02-28T10:48:44;5.80;99.90
46652;DHT22;32377;52.182;5.398;2023-02-28T10:51:12;5.80;99.90
46652;DHT22;32377;52.182;5.398;2023-02-28T10:53:52;5.80;99.90
46652;DHT22;32377;52.182;5.398;2023-02-28T10:59:30;5.90;99.90
46652;DHT22;32377;52.182;5.398;2023-02-28T11:01:56;6.00;99.90
46652;DHT22;32377;52.182;5.398;2023-02-28T11:07:12;6.00;99.90
46652;DHT22;32377;52.182;5.398;2023-02-28T11:09:46;5.90;99.90
46652;DHT22;32377;52.182;5.398;2023-02-28T11:12:29;5.80;99.90
46652;DHT22;32377;52.182;5.398;2023-02-28T11:14:58;5.80;99.90
46652;DHT22;32377;52.182;5.398;2023-02-28T11:17:30;5.80;99.90
46652;DHT22;32377;52.182;5.398;2023-02-28T11:20:10;5.90;99.90
46652;DHT22;32377;52.182;5.398;2023-02-28T11:22:44;5.90;99.90
46652;DHT22;32377;52.182;5.398;2023-02-28T11:25:32;5.90;99.90
46652;DHT22;32377;52.182;5.398;2023-02-28T11:28:01;5.80;99.90
46652;DHT22;32377;52.182;5.398;2023-02-28T11:30:33;5.90;99.90
46652;DHT22;32377;52.182;5.398;2023-02-28T11:33:00;6.00;99.90
46652;DHT22;32377;52.182;5.398;2023-02-28T11:35:36;6.00;99.90
46652;DHT22;32377;52.182;5.398;2023-02-28T11:38:09;6.00;99.90
46652;DHT22;32377;52.182;5.398;2023-02-28T11:49:12;6.10;99.90
46652;DHT22;32377;52.182;5.398;2023-02-28T11:51:50;6.00;98.80
46652;DHT22;32377;52.182;5.398;2023-02-28T11:57:00;6.10;99.90
46652;DHT22;32377;52.182;5.398;2023-02-28T11:59:36;6.10;99.90
46652;DHT22;32377;52.182;5.398;2023-02-28T12:05:00;6.30;99.90
46652;DHT22;32377;52.182;5.398;2023-02-28T12:08:08;6.30;99.60
46652;DHT22;32377;52.182;5.398;2023-02-28T12:11:05;6.30;99.90
46652;DHT22;32377;52.182;5.398;2023-02-28T12:19:26;6.40;99.90
46652;DHT22;32377;52.182;5.398;2023-02-28T12:25:18;6.30;99.00
46652;DHT22;32377;52.182;5.398;2023-02-28T12:27:47;6.40;99.00
46652;DHT22;32377;52.182;5.398;2023-02-28T12:30:18;6.50;99.10
46652;DHT22;32377;52.182;5.398;2023-02-28T12:33:06;6.40;97.80
46652;DHT22;32377;52.182;5.398;2023-02-28T12:35:37;6.40;98.20
46652;DHT22;32377;52.182;5.398;2023-02-28T12:38:14;6.50;97.50
46652;DHT22;32377;52.182;5.398;2023-02-28T12:41:06;6.40;97.90
46652;DHT22;32377;52.182;5.398;2023-02-28T12:43:43;6.40;98.50
46652;DHT22;32377;52.182;5.398;2023-02-28T12:46:22;6.40;98.50
46652;DHT22;32377;52.182;5.398;2023-02-28T12:48:55;6.50;98.70
46652;DHT22;32377;52.182;5.398;2023-02-28T12:51:23;6.50;98.20
46652;DHT22;32377;52.182;5.398;2023-02-28T12:59:48;6.60;96.70
46652;DHT22;32377;52.182;5.398;2023-02-28T13:03:22;6.60;98.50
46652;DHT22;32377;52.182;5.398;2023-02-28T13:10:59;6.70;97.70
46652;DHT22;32377;52.182;5.398;2023-02-28T13:13:28;6.70;99.30
46652;DHT22;32377;52.182;5.398;2023-02-28T13:16:08;6.60;97.80
46652;DHT22;32377;52.182;5.398;2023-02-28T13:18:45;6.60;98.30
46652;DHT22;32377;52.182;5.398;2023-02-28T13:21:26;6.70;99.30
46652;DHT22;32377;52.182;5.398;2023-02-28T13:40:06;6.80;98.00
46652;DHT22;32377;52.182;5.398;2023-02-28T13:42:36;6.80;96.80
46652;DHT22;32377;52.182;5.398;2023-02-28T13:47:53;6.70;97.00
46652;DHT22;32377;52.182;5.398;2023-02-28T13:50:36;6.70;96.90
46652;DHT22;32377;52.182;5.398;2023-02-28T13:55:58;6.70;97.50
46652;DHT22;32377;52.182;5.398;2023-02-28T13:58:37;6.70;97.00
46652;DHT22;32377;52.182;5.398;2023-02-28T14:01:28;6.70;96.80
46652;DHT22;32377;52.182;5.398;2023-02-28T14:04:25;6.70;96.60
46652;DHT22;32377;52.182;5.398;2023-02-28T14:06:56;6.80;96.50
46652;DHT22;32377;52.182;5.398;2023-02-28T14:09:27;6.70;97.30
46652;DHT22;32377;52.182;5.398;2023-02-28T14:11:54;6.70;97.60
46652;DHT22;32377;52.182;5.398;2023-02-28T14:17:21;6.70;97.10
46652;DHT22;32377;52.182;5.398;2023-02-28T14:19:47;6.70;97.30
46652;DHT22;32377;52.182;5.398;2023-02-28T14:25:44;6.80;95.70
46652;DHT22;32377;52.182;5.398;2023-02-28T14:28:16;6.80;95.50
46652;DHT22;32377;52.182;5.398;2023-02-28T14:34:35;6.80;97.20
46652;DHT22;32377;52.182;5.398;2023-02-28T14:37:02;6.80;97.60
46652;DHT22;32377;52.182;5.398;2023-02-28T14:39:30;6.80;97.90
46652;DHT22;32377;52.182;5.398;2023-02-28T14:41:56;6.80;96.10
46652;DHT22;32377;52.182;5.398;2023-02-28T14:44:27;6.80;95.70
46652;DHT22;32377;52.182;5.398;2023-02-28T14:46:55;6.80;96.00
46652;DHT22;32377;52.182;5.398;2023-02-28T14:49:27;6.80;96.40
46652;DHT22;32377;52.182;5.398;2023-02-28T14:52:05;6.90;95.50
46652;DHT22;32377;52.182;5.398;2023-02-28T14:54:31;6.80;96.00
46652;DHT22;32377;52.182;5.398;2023-02-28T14:56:58;6.90;96.90
46652;DHT22;32377;52.182;5.398;2023-02-28T14:59:35;6.80;96.80
46652;DHT22;32377;52.182;5.398;2023-02-28T15:02:21;6.80;95.70
46652;DHT22;32377;52.182;5.398;2023-02-28T15:04:58;6.90;95.80
46652;DHT22;32377;52.182;5.398;2023-02-28T15:07:24;6.90;97.60
46652;DHT22;32377;52.182;5.398;2023-02-28T15:10:20;6.80;96.10
46652;DHT22;32377;52.182;5.398;2023-02-28T15:13:12;6.90;95.80
46652;DHT22;32377;52.182;5.398;2023-02-28T15:15:57;6.90;96.70
46652;DHT22;32377;52.182;5.398;2023-02-28T15:18:47;6.80;96.90
46652;DHT22;32377;52.182;5.398;2023-02-28T15:21:21;6.80;95.30
46652;DHT22;32377;52.182;5.398;2023-02-28T15:23:57;6.80;95.70
46652;DHT22;32377;52.182;5.398;2023-02-28T15:26:27;6.80;96.10
46652;DHT22;32377;52.182;5.398;2023-02-28T15:29:00;6.70;96.60
46652;DHT22;32377;52.182;5.398;2023-02-28T15:31:41;6.70;97.20
46652;DHT22;32377;52.182;5.398;2023-02-28T15:34:19;6.70;96.10
46652;DHT22;32377;52.182;5.398;2023-02-28T15:36:45;6.70;96.60
46652;DHT22;32377;52.182;5.398;2023-02-28T15:39:25;6.70;96.70
46652;DHT22;32377;52.182;5.398;2023-02-28T15:42:09;6.70;95.50
46652;DHT22;32377;52.182;5.398;2023-02-28T15:44:36;6.70;97.40
46652;DHT22;32377;52.182;5.398;2023-02-28T15:47:05;6.60;97.40
46652;DHT22;32377;52.182;5.398;2023-02-28T15:49:51;6.50;97.50
46652;DHT22;32377;52.182;5.398;2023-02-28T15:52:42;6.50;97.80
46652;DHT22;32377;52.182;5.398;2023-02-28T15:55:28;6.40;96.70
46652;DHT22;32377;52.182;5.398;2023-02-28T15:57:57;6.40;96.70
46652;DHT22;32377;52.182;5.398;2023-02-28T16:00:27;6.40;97.10
46652;DHT22;32377;52.182;5.398;2023-02-28T16:02:52;6.40;96.50
46652;DHT22;32377;52.182;5.398;2023-02-28T16:05:25;6.30;96.70
46652;DHT22;32377;52.182;5.398;2023-02-28T16:07:58;6.40;96.70
46652;DHT22;32377;52.182;5.398;2023-02-28T16:10:26;6.40;96.90
46652;DHT22;32377;52.182;5.398;2023-02-28T16:12:56;6.30;96.60
46652;DHT22;32377;52.182;5.398;2023-02-28T16:15:25;6.20;97.10
46652;DHT22;32377;52.182;5.398;2023-02-28T16:17:51;6.20;97.70
46652;DHT22;32377;52.182;5.398;2023-02-28T16:20:23;6.10;96.90
46652;DHT22;32377;52.182;5.398;2023-02-28T16:22:49;6.20;96.70
46652;DHT22;32377;52.182;5.398;2023-02-28T16:25:17;6.10;97.40
46652;DHT22;32377;52.182;5.398;2023-02-28T16:27:46;6.10;97.80
46652;DHT22;32377;52.182;5.398;2023-02-28T16:30:23;6.10;97.20
46652;DHT22;32377;52.182;5.398;2023-02-28T16:32:49;6.00;98.10
46652;DHT22;32377;52.182;5.398;2023-02-28T16:35:16;6.00;97.50
46652;DHT22;32377;52.182;5.398;2023-02-28T16:37:43;6.00;97.30
46652;DHT22;32377;52.182;5.398;2023-02-28T16:40:17;6.00;97.30
46652;DHT22;32377;52.182;5.398;2023-02-28T16:42:44;5.90;97.80
46652;DHT22;32377;52.182;5.398;2023-02-28T16:45:22;5.80;98.80
46652;DHT22;32377;52.182;5.398;2023-02-28T16:47:48;5.80;98.20
46652;DHT22;32377;52.182;5.398;2023-02-28T16:50:40;5.80;99.20
46652;DHT22;32377;52.182;5.398;2023-02-28T16:53:05;5.70;98.70
46652;DHT22;32377;52.182;5.398;2023-02-28T16:55:31;5.70;99.10
46652;DHT22;32377;52.182;5.398;2023-02-28T16:59:11;5.70;98.80
46652;DHT22;32377;52.182;5.398;2023-02-28T17:01:36;5.60;98.80
46652;DHT22;32377;52.182;5.398;2023-02-28T17:04:02;5.50;99.50
46652;DHT22;32377;52.182;5.398;2023-02-28T17:06:29;5.50;98.70
46652;DHT22;32377;52.182;5.398;2023-02-28T17:08:56;5.50;99.10
46652;DHT22;32377;52.182;5.398;2023-02-28T17:11:22;5.40;99.20
46652;DHT22;32377;52.182;5.398;2023-02-28T17:13:48;5.40;99.10
46652;DHT22;32377;52.182;5.398;2023-02-28T17:16:29;5.30;99.40
46652;DHT22;32377;52.182;5.398;2023-02-28T17:18:58;5.30;99.90
46652;DHT22;32377;52.182;5.398;2023-02-28T17:21:24;5.20;99.70
46652;DHT22;32377;52.182;5.398;2023-02-28T17:23:49;5.10;99.90
46652;DHT22;32377;52.182;5.398;2023-02-28T17:26:17;5.10;99.90
46652;DHT22;32377;52.182;5.398;2023-02-28T17:28:45;5.00;99.90
46652;DHT22;32377;52.182;5.398;2023-02-28T17:31:11;4.90;99.90
46652;DHT22;32377;52.182;5.398;2023-02-28T17:33:37;4.90;99.90
46652;DHT22;32377;52.182;5.398;2023-02-28T17:36:02;4.90;99.90
46652;DHT22;32377;52.182;5.398;2023-02-28T17:38:28;4.80;99.90
46652;DHT22;32377;52.182;5.398;2023-02-28T17:40:54;4.80;99.90
46652;DHT22;32377;52.182;5.398;2023-02-28T17:43:26;4.90;99.90
46652;DHT22;32377;52.182;5.398;2023-02-28T17:45:52;4.90;99.90
46652;DHT22;32377;52.182;5.398;2023-02-28T17:48:17;4.80;99.90
46652;DHT22;32377;52.182;5.398;2023-02-28T17:50:43;4.80;99.90
46652;DHT22;32377;52.182;5.398;2023-02-28T17:53:10;4.80;99.90
46652;DHT22;32377;52.182;5.398;2023-02-28T17:55:36;4.80;99.90
46652;DHT22;32377;52.182;5.398;2023-02-28T17:58:02;4.70;99.90
46652;DHT22;32377;52.182;5.398;2023-02-28T18:00:28;4.70;99.90
46652;DHT22;32377;52.182;5.398;2023-02-28T18:02:54;4.60;99.90